LFLN/SYT METAR and TAF weather

Enter ICAO airport designator
Station Type Date Time Source
LFLN METAR 2022/07/03 15:00 UTC NOAA

LFLN 031500Z AUTO 32008KT 290V010 CAVOK 28/15 Q1019 TEMPO 4000 TSRA BKN070CB


Station Type Date Time Source
LFLN Decoded METAR 2022/07/03 15:00 UTC NOAA

Saint-Yan, France (LFLN) 46-25N 004-01E 244M
Jul 03, 2022 - 11:00 AM EDT / 2022.07.03 1500 UTC
Wind: from the NW (320 degrees) at 9 MPH (8 KT) (direction variable):0
Visibility: greater than 7 mile(s):0
Weather: Cumulonimbus clouds observed
Temperature: 82 F (28 C)
Dew Point: 59 F (15 C)
Relative Humidity: 45%
Pressure (altimeter): 30.09 in. Hg (1019 hPa)
ob: LFLN 031500Z AUTO 32008KT 290V010 CAVOK 28/15 Q1019 TEMPO 4000 TSRA BKN070CB
cycle: 15

Station Type Date Time Source
LFLN TAF UTC NOAA

Error!

Example: see airport list